Time;durP1;ratioP1;P1;durP2;ratioP2;P2;SDS_P1;SDS_P2;PMS_P1;PMS_P2;Temp;Humidity;BMP_temperature;BMP_pressure;BME280_temperature;BME280_humidity;BME280_pressure;Samples;Min_cycle;Max_cycle;Signal;HPM_P1;HPM_P2
2023/03/30 00:01:29;;;;;;;21.00;11.68;;;;;;;;;;4985050;28;20038;-80
2023/03/30 00:03:57;;;;;;;22.45;12.30;;;;;;;;;;4986525;28;20050;-80
2023/03/30 00:06:25;;;;;;;23.15;12.02;;;;;;;;;;4986251;28;20093;-80
2023/03/30 00:08:58;;;;;;;21.45;11.75;;;;;;;;;;4985729;28;20038;-80
2023/03/30 00:11:32;;;;;;;18.15;11.00;;;;;;;;;;4985696;28;20042;-80
2023/03/30 00:14:05;;;;;;;19.77;11.18;;;;;;;;;;4985319;28;20092;-80
2023/03/30 00:16:58;;;;;;;18.73;11.50;;;;;;;;;;4968206;28;20046;-80
2023/03/30 00:22:44;;;;;;;26.38;11.63;;;;;;;;;;4985139;28;20089;-79
2023/03/30 00:25:17;;;;;;;25.17;10.85;;;;;;;;;;4985040;28;20031;-80
2023/03/30 00:27:45;;;;;;;20.73;11.70;;;;;;;;;;4985092;28;20511;-80
2023/03/30 00:30:15;;;;;;;20.60;11.48;;;;;;;;;;4968673;28;20044;-80
2023/03/30 00:32:44;;;;;;;19.40;10.65;;;;;;;;;;4999657;28;20446;-79
2023/03/30 00:35:21;;;;;;;21.70;10.65;;;;;;;;;;4987345;28;20656;-80
2023/03/30 00:37:50;;;;;;;20.35;10.98;;;;;;;;;;4985944;28;20039;-80
2023/03/30 00:40:41;;;;;;;20.73;10.15;;;;;;;;;;4986306;28;20056;-80
2023/03/30 00:43:13;;;;;;;20.90;11.43;;;;;;;;;;4985012;28;20103;-80
2023/03/30 00:45:41;;;;;;;17.70;10.27;;;;;;;;;;4988308;28;20042;-80
2023/03/30 00:48:14;;;;;;;23.08;11.38;;;;;;;;;;4972600;28;20081;-80
2023/03/30 00:50:52;;;;;;;21.33;10.77;;;;;;;;;;4963415;28;20042;-80
2023/03/30 00:53:28;;;;;;;20.67;11.18;;;;;;;;;;4956400;28;20046;-80
2023/03/30 00:55:58;;;;;;;21.10;10.48;;;;;;;;;;4981935;28;20419;-80
2023/03/30 00:58:28;;;;;;;20.85;11.18;;;;;;;;;;4968945;28;20045;-80
2023/03/30 01:01:27;;;;;;;20.42;10.80;;;;;;;;;;4989456;28;20392;-80
2023/03/30 01:04:01;;;;;;;23.02;11.07;;;;;;;;;;4987119;28;20046;-80
2023/03/30 01:06:35;;;;;;;19.42;10.30;;;;;;;;;;4971766;28;20068;-79
2023/03/30 01:09:07;;;;;;;17.60;10.00;;;;;;;;;;5003605;28;20039;-80
2023/03/30 01:11:35;;;;;;;19.90;9.45;;;;;;;;;;4989272;28;20492;-80
2023/03/30 01:14:06;;;;;;;18.80;9.85;;;;;;;;;;4969295;28;20053;-80
2023/03/30 01:16:41;;;;;;;18.23;9.80;;;;;;;;;;5002052;28;20039;-79
2023/03/30 01:20:10;;;;;;;20.25;10.98;;;;;;;;;;4965510;28;20066;-80
2023/03/30 01:23:26;;;;;;;22.83;10.15;;;;;;;;;;4999597;28;20129;-80
2023/03/30 01:29:16;;;;;;;18.95;9.23;;;;;;;;;;4981075;28;20035;-80
2023/03/30 01:32:17;;;;;;;20.27;10.23;;;;;;;;;;4987445;28;20076;-80
2023/03/30 01:35:25;;;;;;;16.92;9.68;;;;;;;;;;4970572;28;20492;-80
2023/03/30 01:38:13;;;;;;;18.83;9.68;;;;;;;;;;4971651;28;20046;-80
2023/03/30 01:41:01;;;;;;;18.95;9.52;;;;;;;;;;5045480;28;20087;-80
2023/03/30 01:43:31;;;;;;;19.67;8.98;;;;;;;;;;5030466;28;20553;-80
2023/03/30 01:46:39;;;;;;;16.75;9.73;;;;;;;;;;5045413;28;20131;-80
2023/03/30 01:49:16;;;;;;;15.02;8.95;;;;;;;;;;5027665;28;20108;-80
2023/03/30 01:51:55;;;;;;;18.77;9.55;;;;;;;;;;5031128;28;20163;-80
2023/03/30 01:54:29;;;;;;;19.55;10.23;;;;;;;;;;5030243;28;20053;-80
2023/03/30 01:57:14;;;;;;;19.15;10.90;;;;;;;;;;5030997;28;20103;-80
2023/03/30 01:59:50;;;;;;;19.45;9.63;;;;;;;;;;5019643;28;20149;-79
2023/03/30 02:02:51;;;;;;;17.90;9.38;;;;;;;;;;5045491;28;20048;-80
2023/03/30 02:05:21;;;;;;;20.95;10.00;;;;;;;;;;5044895;28;20053;-80
2023/03/30 02:08:17;;;;;;;18.73;8.60;;;;;;;;;;5046820;28;20052;-80
2023/03/30 02:10:53;;;;;;;17.55;9.90;;;;;;;;;;5015165;28;20054;-80
2023/03/30 02:13:22;;;;;;;19.13;10.32;;;;;;;;;;4985490;28;20034;-80
2023/03/30 02:16:08;;;;;;;17.70;9.38;;;;;;;;;;4984556;28;20076;-80
2023/03/30 02:18:45;;;;;;;18.98;8.90;;;;;;;;;;4980778;28;20038;-80
2023/03/30 02:21:19;;;;;;;22.65;10.60;;;;;;;;;;4969645;28;20038;-80
2023/03/30 02:23:47;;;;;;;15.18;9.13;;;;;;;;;;4953133;28;20050;-80
2023/03/30 02:26:26;;;;;;;20.48;10.63;;;;;;;;;;5001586;28;20125;-80
2023/03/30 02:28:53;;;;;;;20.25;9.40;;;;;;;;;;4987961;28;20484;-80
2023/03/30 02:31:21;;;;;;;18.33;9.95;;;;;;;;;;4987253;28;20042;-80
2023/03/30 02:34:23;;;;;;;17.35;9.60;;;;;;;;;;4990037;28;20037;-80
2023/03/30 02:37:00;;;;;;;18.02;9.80;;;;;;;;;;4969800;28;20046;-80
2023/03/30 02:40:01;;;;;;;15.98;9.05;;;;;;;;;;4954683;28;20065;-80
2023/03/30 02:42:49;;;;;;;17.77;9.55;;;;;;;;;;5001583;28;20134;-80
2023/03/30 02:45:26;;;;;;;17.85;9.45;;;;;;;;;;4966266;28;20054;-80
2023/03/30 02:48:17;;;;;;;16.77;9.63;;;;;;;;;;5002009;28;20039;-80
2023/03/30 02:51:17;;;;;;;17.48;8.90;;;;;;;;;;4977756;28;20080;-80
2023/03/30 02:54:31;;;;;;;18.70;8.93;;;;;;;;;;5001392;28;20070;-80
2023/03/30 02:57:40;;;;;;;21.20;9.57;;;;;;;;;;4986948;28;20042;-79
2023/03/30 03:00:40;;;;;;;18.50;9.80;;;;;;;;;;5001348;28;20092;-80
2023/03/30 03:03:18;;;;;;;18.65;9.95;;;;;;;;;;4969512;28;20046;-80
2023/03/30 03:05:47;;;;;;;21.80;9.85;;;;;;;;;;5000900;28;20043;-80
2023/03/30 03:08:17;;;;;;;21.27;10.10;;;;;;;;;;5000270;28;20046;-79
2023/03/30 03:10:47;;;;;;;17.05;9.57;;;;;;;;;;4966784;28;20030;-80
2023/03/30 03:14:06;;;;;;;17.83;9.65;;;;;;;;;;4986859;28;20030;-80
2023/03/30 03:16:35;;;;;;;19.80;10.77;;;;;;;;;;4961814;28;20122;-80
2023/03/30 03:19:15;;;;;;;20.38;10.10;;;;;;;;;;4972554;28;20404;-80
2023/03/30 03:21:45;;;;;;;20.60;9.65;;;;;;;;;;4970680;28;20038;-80
2023/03/30 03:24:38;;;;;;;20.40;10.63;;;;;;;;;;4999973;28;20049;-80
2023/03/30 03:27:09;;;;;;;21.98;10.13;;;;;;;;;;4986609;28;20046;-80
2023/03/30 03:30:01;;;;;;;20.30;10.65;;;;;;;;;;4986943;28;20034;-80
2023/03/30 03:32:33;;;;;;;18.15;9.52;;;;;;;;;;4984279;28;20069;-80
2023/03/30 03:35:01;;;;;;;23.33;10.00;;;;;;;;;;4971440;28;20039;-80
2023/03/30 03:37:29;;;;;;;21.33;10.70;;;;;;;;;;4968180;28;20095;-80
2023/03/30 03:40:21;;;;;;;18.25;9.07;;;;;;;;;;4964101;28;20027;-80
2023/03/30 03:42:55;;;;;;;18.77;9.48;;;;;;;;;;4985461;28;20459;-80
2023/03/30 03:45:23;;;;;;;17.95;9.57;;;;;;;;;;4969139;28;20046;-80
2023/03/30 03:47:57;;;;;;;21.50;10.15;;;;;;;;;;4978024;28;20042;-80
2023/03/30 03:50:52;;;;;;;20.33;9.93;;;;;;;;;;4987137;28;20049;-80
2023/03/30 03:53:22;;;;;;;20.75;9.07;;;;;;;;;;4969752;28;20070;-80
2023/03/30 03:55:53;;;;;;;17.67;9.15;;;;;;;;;;4967463;28;20042;-80
2023/03/30 03:58:21;;;;;;;19.15;9.63;;;;;;;;;;4972496;28;20072;-80
2023/03/30 04:01:14;;;;;;;18.08;9.70;;;;;;;;;;4986767;28;20058;-80
2023/03/30 04:03:48;;;;;;;17.20;9.48;;;;;;;;;;4967365;28;20042;-80
2023/03/30 04:06:15;;;;;;;21.52;10.00;;;;;;;;;;4986641;28;20070;-80
2023/03/30 04:08:45;;;;;;;18.00;9.90;;;;;;;;;;4948616;28;20048;-80
2023/03/30 04:11:23;;;;;;;22.67;9.65;;;;;;;;;;4978774;28;20042;-80
2023/03/30 04:14:41;;;;;;;18.58;9.65;;;;;;;;;;4982859;28;20046;-79
2023/03/30 04:17:33;;;;;;;20.52;8.90;;;;;;;;;;4986043;28;20048;-80
2023/03/30 04:20:14;;;;;;;18.20;8.82;;;;;;;;;;5001622;28;20047;-80
2023/03/30 04:23:00;;;;;;;19.33;10.13;;;;;;;;;;4972566;28;20042;-80
2023/03/30 04:25:51;;;;;;;19.33;9.77;;;;;;;;;;4981060;28;20442;-80
2023/03/30 04:28:45;;;;;;;18.42;9.18;;;;;;;;;;5000218;28;20049;-80
2023/03/30 04:31:40;;;;;;;20.55;9.65;;;;;;;;;;4994818;28;20539;-79
2023/03/30 04:37:28;;;;;;;14.45;7.90;;;;;;;;;;4975412;28;20051;-80
2023/03/30 04:41:00;;;;;;;19.95;9.57;;;;;;;;;;4984921;28;20043;-80
2023/03/30 04:44:06;;;;;;;17.98;9.20;;;;;;;;;;4971241;28;20056;-79
2023/03/30 04:47:26;;;;;;;17.17;8.70;;;;;;;;;;4976668;28;20042;-80
2023/03/30 04:50:15;;;;;;;17.83;9.57;;;;;;;;;;5002487;28;20048;-80
2023/03/30 04:53:01;;;;;;;24.60;9.85;;;;;;;;;;4983799;28;20436;-80
2023/03/30 04:55:51;;;;;;;16.85;9.63;;;;;;;;;;4925214;29;20375;-80
2023/03/30 04:58:37;;;;;;;17.00;9.35;;;;;;;;;;4927524;29;20427;-80
2023/03/30 05:01:25;;;;;;;22.98;9.00;;;;;;;;;;4936221;29;20083;-80
2023/03/30 05:04:09;;;;;;;18.95;9.20;;;;;;;;;;4950054;28;20070;-80
2023/03/30 05:06:56;;;;;;;16.98;9.23;;;;;;;;;;4918564;28;20061;-80
2023/03/30 05:09:39;;;;;;;18.02;8.65;;;;;;;;;;4984052;28;20054;-81
2023/03/30 05:12:33;;;;;;;21.58;9.13;;;;;;;;;;5000824;28;20049;-81
2023/03/30 05:15:11;;;;;;;19.33;9.20;;;;;;;;;;4983094;28;20405;-81
2023/03/30 05:18:25;;;;;;;20.85;9.32;;;;;;;;;;4999964;28;20057;-81
2023/03/30 05:21:27;;;;;;;21.52;8.73;;;;;;;;;;4955969;28;20122;-81
2023/03/30 05:24:13;;;;;;;16.55;9.13;;;;;;;;;;4966250;28;20537;-81
2023/03/30 05:26:55;;;;;;;22.38;9.50;;;;;;;;;;4970126;28;20548;-81
2023/03/30 05:29:41;;;;;;;15.77;8.57;;;;;;;;;;4966318;28;20043;-80
2023/03/30 05:32:27;;;;;;;15.75;8.00;;;;;;;;;;4952278;28;20128;-80
2023/03/30 05:35:31;;;;;;;17.35;8.98;;;;;;;;;;4947045;29;20533;-80
2023/03/30 05:38:37;;;;;;;15.13;8.30;;;;;;;;;;4850470;29;20053;-80
2023/03/30 05:41:35;;;;;;;19.95;8.07;;;;;;;;;;4841741;29;20066;-79
2023/03/30 05:44:15;;;;;;;18.10;8.43;;;;;;;;;;4851313;29;20065;-80
2023/03/30 05:47:01;;;;;;;15.25;8.23;;;;;;;;;;4840106;29;20045;-80
2023/03/30 05:49:39;;;;;;;14.95;8.02;;;;;;;;;;4835648;29;20122;-81
2023/03/30 05:52:21;;;;;;;16.17;7.90;;;;;;;;;;4823576;29;20058;-80
2023/03/30 05:55:19;;;;;;;19.33;8.80;;;;;;;;;;4852598;29;20198;-79
2023/03/30 05:58:12;;;;;;;15.52;7.75;;;;;;;;;;4919582;28;20068;-80
2023/03/30 06:00:59;;;;;;;14.95;7.68;;;;;;;;;;4915615;28;20040;-80
2023/03/30 06:03:33;;;;;;;17.15;8.18;;;;;;;;;;4978748;28;20135;-80
2023/03/30 06:06:09;;;;;;;16.05;7.50;;;;;;;;;;4992718;28;20408;-80
2023/03/30 06:08:37;;;;;;;19.17;8.82;;;;;;;;;;4929478;28;20053;-80
2023/03/30 06:11:30;;;;;;;14.95;7.70;;;;;;;;;;4925081;29;20518;-80
2023/03/30 06:14:09;;;;;;;15.55;8.00;;;;;;;;;;4944585;28;20053;-80
2023/03/30 06:16:39;;;;;;;14.50;7.47;;;;;;;;;;4992785;28;20134;-80
2023/03/30 06:19:07;;;;;;;16.63;7.57;;;;;;;;;;4965619;28;20141;-80
2023/03/30 06:21:39;;;;;;;15.85;7.15;;;;;;;;;;4956720;28;20919;-80
2023/03/30 06:24:25;;;;;;;13.25;7.50;;;;;;;;;;4971518;28;20047;-80
2023/03/30 06:27:00;;;;;;;21.05;8.27;;;;;;;;;;4971335;28;20496;-80
2023/03/30 06:29:29;;;;;;;16.40;6.82;;;;;;;;;;4987996;28;20080;-79
2023/03/30 06:32:03;;;;;;;15.57;7.47;;;;;;;;;;4981101;28;20124;-80
2023/03/30 06:34:41;;;;;;;17.88;7.47;;;;;;;;;;4968228;28;20050;-80
2023/03/30 06:37:09;;;;;;;14.77;7.00;;;;;;;;;;4966465;28;20585;-80
2023/03/30 06:39:37;;;;;;;17.45;7.97;;;;;;;;;;4964466;28;20046;-80
2023/03/30 06:42:29;;;;;;;16.20;9.10;;;;;;;;;;4997914;28;20476;-80
2023/03/30 06:45:12;;;;;;;24.30;9.45;;;;;;;;;;4966089;28;20469;-80
2023/03/30 06:48:05;;;;;;;17.42;8.20;;;;;;;;;;4957599;28;20042;-79
2023/03/30 06:51:23;;;;;;;17.73;8.52;;;;;;;;;;4978261;28;20117;-80
2023/03/30 06:53:55;;;;;;;15.40;7.82;;;;;;;;;;4967431;28;20068;-80
2023/03/30 06:56:23;;;;;;;19.95;9.02;;;;;;;;;;4968422;28;20088;-80
2023/03/30 06:59:12;;;;;;;18.83;8.43;;;;;;;;;;4969705;28;20404;-80
2023/03/30 07:02:14;;;;;;;16.65;8.27;;;;;;;;;;4982824;28;20054;-80
2023/03/30 07:05:01;;;;;;;14.48;8.23;;;;;;;;;;4984509;28;20526;-80
2023/03/30 07:07:39;;;;;;;19.92;8.88;;;;;;;;;;4966334;28;20484;-80
2023/03/30 07:10:13;;;;;;;15.32;7.97;;;;;;;;;;4963350;28;20035;-80
2023/03/30 07:12:42;;;;;;;18.88;7.95;;;;;;;;;;4968017;28;20065;-80
2023/03/30 07:15:39;;;;;;;16.25;8.07;;;;;;;;;;4989398;28;20038;-80
2023/03/30 07:18:13;;;;;;;14.82;8.07;;;;;;;;;;4950981;28;20042;-80
2023/03/30 07:20:42;;;;;;;17.90;8.43;;;;;;;;;;4963849;28;20045;-79
2023/03/30 07:23:15;;;;;;;13.75;7.60;;;;;;;;;;4958392;28;20099;-80
2023/03/30 07:25:51;;;;;;;14.85;7.65;;;;;;;;;;4967937;28;20547;-80
2023/03/30 07:28:45;;;;;;;14.18;7.53;;;;;;;;;;4979999;28;20396;-79
2023/03/30 07:31:22;;;;;;;17.77;7.55;;;;;;;;;;4961957;28;20039;-80
2023/03/30 07:33:51;;;;;;;13.57;7.35;;;;;;;;;;4956986;28;20125;-80
2023/03/30 07:36:23;;;;;;;21.27;7.50;;;;;;;;;;5034424;28;20050;-80
2023/03/30 07:38:51;;;;;;;11.30;6.70;;;;;;;;;;4947919;28;20515;-80
2023/03/30 07:41:19;;;;;;;14.77;7.80;;;;;;;;;;4952122;28;20030;-80
2023/03/30 07:43:51;;;;;;;17.55;7.68;;;;;;;;;;4964469;28;20137;-80
2023/03/30 07:46:19;;;;;;;14.27;6.90;;;;;;;;;;4983253;28;20557;-80
2023/03/30 07:48:51;;;;;;;14.07;6.40;;;;;;;;;;4966828;28;20042;-80
2023/03/30 07:51:19;;;;;;;13.02;5.95;;;;;;;;;;4981295;28;20035;-80
2023/03/30 07:54:09;;;;;;;15.25;6.45;;;;;;;;;;4957385;28;20053;-80
2023/03/30 07:56:59;;;;;;;16.95;7.40;;;;;;;;;;4977801;28;20061;-81
2023/03/30 07:59:27;;;;;;;15.57;7.13;;;;;;;;;;4986319;28;20046;-80
2023/03/30 08:02:01;;;;;;;15.00;6.95;;;;;;;;;;4980383;28;20103;-80
2023/03/30 08:04:49;;;;;;;15.07;6.38;;;;;;;;;;4986488;28;20084;-80
2023/03/30 08:07:23;;;;;;;12.82;6.10;;;;;;;;;;4964367;28;20050;-80
2023/03/30 08:09:55;;;;;;;13.05;6.50;;;;;;;;;;4968703;28;20572;-80
2023/03/30 08:12:23;;;;;;;11.00;5.80;;;;;;;;;;4966234;28;20038;-80
2023/03/30 08:14:51;;;;;;;14.98;5.80;;;;;;;;;;4964362;28;20073;-80
2023/03/30 08:17:23;;;;;;;14.90;5.93;;;;;;;;;;4966167;28;20500;-80
2023/03/30 08:19:51;;;;;;;15.13;6.35;;;;;;;;;;4982235;28;20038;-80
2023/03/30 08:22:19;;;;;;;12.68;6.32;;;;;;;;;;4968501;28;20048;-80
2023/03/30 08:24:47;;;;;;;8.50;4.97;;;;;;;;;;4966538;28;20034;-80
2023/03/30 08:27:19;;;;;;;12.90;5.10;;;;;;;;;;4963119;28;20034;-80
2023/03/30 08:29:47;;;;;;;13.30;5.30;;;;;;;;;;4945382;28;20051;-81
2023/03/30 08:32:21;;;;;;;11.43;4.50;;;;;;;;;;4953091;28;20112;-81
2023/03/30 08:34:49;;;;;;;8.40;4.13;;;;;;;;;;4980989;28;20034;-80
2023/03/30 08:37:18;;;;;;;10.00;4.22;;;;;;;;;;4988097;28;20480;-81
2023/03/30 08:40:11;;;;;;;7.03;4.00;;;;;;;;;;4972751;28;20153;-81
2023/03/30 08:42:56;;;;;;;7.97;4.15;;;;;;;;;;4983796;28;20121;-80
2023/03/30 08:45:37;;;;;;;9.68;3.83;;;;;;;;;;4963975;28;20031;-81
2023/03/30 08:48:20;;;;;;;11.98;3.95;;;;;;;;;;4980774;28;20107;-80
2023/03/30 08:50:59;;;;;;;8.05;3.83;;;;;;;;;;4982251;28;20038;-80
2023/03/30 08:53:30;;;;;;;12.15;3.92;;;;;;;;;;4983199;28;20030;-81
2023/03/30 08:56:27;;;;;;;9.05;3.40;;;;;;;;;;4994241;28;20038;-80
2023/03/30 08:59:43;;;;;;;11.07;4.10;;;;;;;;;;4978824;28;20074;-80
2023/03/30 09:02:14;;;;;;;10.55;3.95;;;;;;;;;;4952494;28;20157;-81
2023/03/30 09:05:26;;;;;;;10.25;3.70;;;;;;;;;;4980244;28;20053;-80
2023/03/30 09:08:05;;;;;;;7.95;3.92;;;;;;;;;;4959175;28;20115;-81
2023/03/30 09:10:39;;;;;;;6.88;3.42;;;;;;;;;;4984946;28;20431;-80
2023/03/30 09:13:11;;;;;;;11.30;3.63;;;;;;;;;;4972206;28;20519;-81
2023/03/30 09:15:48;;;;;;;9.63;3.75;;;;;;;;;;4969100;28;20088;-81
2023/03/30 09:18:26;;;;;;;8.57;3.53;;;;;;;;;;4985762;28;20042;-80
2023/03/30 09:21:01;;;;;;;9.27;3.63;;;;;;;;;;5002171;28;20066;-81
2023/03/30 09:23:34;;;;;;;10.65;4.03;;;;;;;;;;4970505;28;20446;-81
2023/03/30 09:26:19;;;;;;;11.52;3.28;;;;;;;;;;4998613;28;20501;-81
2023/03/30 09:29:07;;;;;;;9.32;3.60;;;;;;;;;;4967286;28;20042;-81
2023/03/30 09:31:43;;;;;;;6.57;3.25;;;;;;;;;;4982934;28;21104;-81
2023/03/30 09:34:16;;;;;;;10.32;3.80;;;;;;;;;;4983876;28;20135;-81
2023/03/30 09:37:11;;;;;;;6.50;3.70;;;;;;;;;;4985924;28;20034;-81
2023/03/30 09:39:40;;;;;;;11.85;4.10;;;;;;;;;;5001144;28;20039;-81
2023/03/30 09:42:15;;;;;;;6.82;3.50;;;;;;;;;;4986448;28;20081;-81
2023/03/30 09:45:15;;;;;;;12.82;3.85;;;;;;;;;;4982324;28;20034;-81
2023/03/30 09:47:43;;;;;;;10.77;4.25;;;;;;;;;;4984368;28;20046;-81
2023/03/30 09:50:16;;;;;;;6.22;3.42;;;;;;;;;;5003649;28;20049;-81
2023/03/30 09:53:00;;;;;;;9.73;3.72;;;;;;;;;;4988391;28;20503;-81
2023/03/30 09:55:29;;;;;;;9.52;3.42;;;;;;;;;;4969234;28;20065;-81
2023/03/30 09:58:19;;;;;;;9.77;3.83;;;;;;;;;;4988839;28;20049;-81
2023/03/30 10:01:04;;;;;;;10.50;4.00;;;;;;;;;;4970736;28;20049;-81
2023/03/30 10:04:11;;;;;;;9.23;3.42;;;;;;;;;;4982119;28;20040;-81
2023/03/30 10:06:49;;;;;;;8.20;3.80;;;;;;;;;;4998169;28;20128;-81
2023/03/30 10:09:20;;;;;;;7.72;3.17;;;;;;;;;;4984866;28;20039;-81
2023/03/30 10:11:54;;;;;;;10.60;4.00;;;;;;;;;;4987630;28;20038;-81
2023/03/30 10:14:31;;;;;;;8.18;3.05;;;;;;;;;;4983475;28;20449;-81
2023/03/30 10:17:04;;;;;;;8.23;3.90;;;;;;;;;;4976278;28;20115;-81
2023/03/30 10:19:34;;;;;;;7.80;3.53;;;;;;;;;;4986042;28;20043;-81
2023/03/30 10:22:21;;;;;;;8.30;4.13;;;;;;;;;;4962920;28;20054;-81
2023/03/30 10:24:55;;;;;;;5.47;2.83;;;;;;;;;;4962563;28;20121;-81
2023/03/30 10:27:32;;;;;;;6.40;3.35;;;;;;;;;;4980212;28;20038;-81
2023/03/30 10:30:08;;;;;;;9.70;3.45;;;;;;;;;;4977834;28;20407;-81
2023/03/30 10:33:02;;;;;;;8.25;3.50;;;;;;;;;;4978454;28;20050;-81
2023/03/30 10:35:36;;;;;;;8.60;3.05;;;;;;;;;;4977839;28;20062;-81
2023/03/30 10:38:05;;;;;;;8.57;2.97;;;;;;;;;;4999366;28;20412;-81
2023/03/30 10:41:14;;;;;;;7.63;2.50;;;;;;;;;;4989547;28;20037;-81
2023/03/30 10:43:41;;;;;;;9.27;2.80;;;;;;;;;;5000816;28;20057;-81
2023/03/30 10:46:16;;;;;;;7.30;2.60;;;;;;;;;;4999553;28;20404;-81
2023/03/30 10:49:12;;;;;;;4.85;2.08;;;;;;;;;;4957627;28;20058;-82
2023/03/30 10:51:45;;;;;;;8.00;2.42;;;;;;;;;;4984491;28;20045;-81
2023/03/30 10:54:25;;;;;;;5.80;2.67;;;;;;;;;;4965921;28;20042;-81
2023/03/30 10:57:01;;;;;;;7.93;2.65;;;;;;;;;;4978324;28;20050;-81
2023/03/30 10:59:29;;;;;;;6.18;2.33;;;;;;;;;;4984197;28;20045;-81
2023/03/30 11:01:57;;;;;;;9.68;2.80;;;;;;;;;;4961216;28;20040;-81
2023/03/30 11:04:45;;;;;;;9.98;2.55;;;;;;;;;;4969581;28;20046;-81
2023/03/30 11:07:28;;;;;;;4.63;2.17;;;;;;;;;;4977846;28;20042;-81
2023/03/30 11:10:30;;;;;;;6.68;2.40;;;;;;;;;;4995561;28;20069;-81
2023/03/30 11:13:27;;;;;;;7.00;2.60;;;;;;;;;;4972990;28;20504;-81
2023/03/30 11:16:13;;;;;;;7.10;2.38;;;;;;;;;;4977206;28;20051;-81
2023/03/30 11:19:02;;;;;;;4.57;2.90;;;;;;;;;;4980515;28;20061;-81
2023/03/30 11:21:52;;;;;;;7.63;2.70;;;;;;;;;;4979895;28;20030;-81
2023/03/30 11:24:25;;;;;;;7.32;3.30;;;;;;;;;;4973209;28;20046;-80
2023/03/30 11:27:29;;;;;;;4.43;2.20;;;;;;;;;;4950725;28;20037;-81
2023/03/30 11:30:16;;;;;;;6.32;2.42;;;;;;;;;;4990565;28;20500;-81
2023/03/30 11:33:06;;;;;;;6.68;2.35;;;;;;;;;;4962392;28;20070;-81
2023/03/30 11:35:40;;;;;;;7.18;3.28;;;;;;;;;;4999735;28;20111;-81
2023/03/30 11:38:35;;;;;;;6.78;2.17;;;;;;;;;;4982573;28;20954;-81
2023/03/30 11:41:16;;;;;;;5.88;2.00;;;;;;;;;;4979496;28;20030;-81
2023/03/30 11:43:45;;;;;;;3.90;1.55;;;;;;;;;;4995268;28;20318;-81
2023/03/30 11:46:33;;;;;;;4.85;1.02;;;;;;;;;;4969074;28;20922;-82
2023/03/30 11:49:19;;;;;;;5.35;1.58;;;;;;;;;;4972124;28;20073;-81
2023/03/30 11:52:07;;;;;;;9.93;1.70;;;;;;;;;;4974789;28;20042;-80
2023/03/30 11:54:43;;;;;;;4.53;1.27;;;;;;;;;;4987438;28;20613;-81
2023/03/30 11:57:43;;;;;;;2.95;1.02;;;;;;;;;;5005113;28;20049;-81
2023/03/30 12:00:34;;;;;;;6.00;1.67;;;;;;;;;;5005142;28;20046;-81
2023/03/30 12:03:38;;;;;;;8.52;1.17;;;;;;;;;;4985604;28;20049;-81
2023/03/30 12:06:32;;;;;;;7.55;1.27;;;;;;;;;;5003049;28;20925;-81
2023/03/30 12:09:01;;;;;;;4.63;1.33;;;;;;;;;;4986389;28;20038;-81
2023/03/30 12:11:44;;;;;;;3.95;1.17;;;;;;;;;;4971564;28;20041;-81
2023/03/30 12:14:27;;;;;;;4.97;1.52;;;;;;;;;;4988044;28;20061;-81
2023/03/30 12:17:02;;;;;;;4.82;0.95;;;;;;;;;;4988187;28;20046;-81
2023/03/30 12:19:47;;;;;;;6.85;1.40;;;;;;;;;;4986339;28;20128;-81
2023/03/30 12:22:37;;;;;;;5.45;1.40;;;;;;;;;;4984974;28;20041;-81
2023/03/30 12:25:22;;;;;;;8.25;1.70;;;;;;;;;;4984093;28;20042;-81
2023/03/30 12:28:13;;;;;;;8.00;1.55;;;;;;;;;;4964291;28;20142;-81
2023/03/30 12:30:59;;;;;;;9.38;1.63;;;;;;;;;;4964295;28;20061;-82
2023/03/30 12:33:51;;;;;;;7.55;1.40;;;;;;;;;;4981692;28;20488;-81
2023/03/30 12:36:46;;;;;;;6.60;1.35;;;;;;;;;;4982891;28;20049;-81
2023/03/30 12:39:47;;;;;;;5.22;1.50;;;;;;;;;;4986774;28;20631;-81
2023/03/30 12:42:25;;;;;;;8.70;1.58;;;;;;;;;;4988339;28;20034;-81
2023/03/30 12:45:20;;;;;;;8.15;1.50;;;;;;;;;;4970232;28;20146;-81
2023/03/30 12:48:26;;;;;;;8.07;1.75;;;;;;;;;;4986717;28;20565;-81
2023/03/30 12:51:46;;;;;;;7.95;1.85;;;;;;;;;;4968453;28;20038;-81
2023/03/30 12:54:31;;;;;;;9.98;1.60;;;;;;;;;;4963587;28;20061;-81
2023/03/30 12:57:29;;;;;;;10.73;1.58;;;;;;;;;;4983276;28;20479;-81
2023/03/30 13:00:24;;;;;;;8.77;1.98;;;;;;;;;;4984816;28;20117;-81
2023/03/30 13:03:01;;;;;;;8.45;2.08;;;;;;;;;;4946853;28;20631;-81
2023/03/30 13:05:32;;;;;;;10.60;1.67;;;;;;;;;;4964681;28;20092;-81
2023/03/30 13:08:05;;;;;;;7.63;1.80;;;;;;;;;;4969991;28;20039;-81
2023/03/30 13:10:41;;;;;;;9.88;1.70;;;;;;;;;;4984096;28;20046;-81
2023/03/30 13:13:43;;;;;;;10.63;1.80;;;;;;;;;;4985009;28;20095;-81
2023/03/30 13:16:11;;;;;;;7.20;1.73;;;;;;;;;;4972531;28;20126;-81
2023/03/30 13:19:19;;;;;;;11.07;2.00;;;;;;;;;;4962489;28;20123;-81
2023/03/30 13:22:14;;;;;;;9.15;1.50;;;;;;;;;;4987441;28;20042;-81
2023/03/30 13:25:47;;;;;;;9.60;1.77;;;;;;;;;;4964897;28;20038;-81
2023/03/30 13:28:53;;;;;;;6.45;1.70;;;;;;;;;;4987411;28;20054;-81
2023/03/30 13:31:33;;;;;;;6.18;1.20;;;;;;;;;;4965799;28;20061;-81
2023/03/30 13:34:10;;;;;;;8.23;1.42;;;;;;;;;;4984838;28;20050;-81
2023/03/30 13:37:04;;;;;;;6.65;1.55;;;;;;;;;;4984576;28;20058;-81
2023/03/30 13:40:10;;;;;;;8.23;2.05;;;;;;;;;;4970026;28;20039;-81
2023/03/30 13:42:53;;;;;;;9.30;1.70;;;;;;;;;;4950610;28;20486;-81
2023/03/30 13:45:33;;;;;;;13.50;1.83;;;;;;;;;;4948434;28;20489;-81
2023/03/30 13:48:10;;;;;;;6.80;1.20;;;;;;;;;;4985924;28;20488;-81
2023/03/30 13:50:49;;;;;;;8.38;1.60;;;;;;;;;;4971881;28;20104;-81
2023/03/30 13:53:18;;;;;;;6.75;0.95;;;;;;;;;;4981908;28;20046;-81
2023/03/30 13:55:48;;;;;;;7.00;1.40;;;;;;;;;;4965711;28;20050;-81
2023/03/30 13:58:31;;;;;;;5.18;1.75;;;;;;;;;;4967808;28;20100;-81
2023/03/30 14:01:25;;;;;;;9.43;1.17;;;;;;;;;;4980262;28;20484;-81
2023/03/30 14:03:59;;;;;;;7.28;1.30;;;;;;;;;;4983538;28;20038;-81
2023/03/30 14:06:42;;;;;;;5.82;1.05;;;;;;;;;;4992971;28;20129;-81
2023/03/30 14:09:23;;;;;;;10.80;1.35;;;;;;;;;;4981175;28;20042;-81
2023/03/30 14:11:57;;;;;;;8.30;1.13;;;;;;;;;;4959397;28;20038;-81
2023/03/30 14:14:29;;;;;;;5.22;1.00;;;;;;;;;;4982185;28;20057;-81
2023/03/30 14:17:17;;;;;;;6.13;0.77;;;;;;;;;;4984298;28;20518;-81
2023/03/30 14:19:53;;;;;;;5.95;1.10;;;;;;;;;;4983828;28;20038;-81
2023/03/30 14:22:47;;;;;;;3.83;0.88;;;;;;;;;;4986214;28;20031;-81
2023/03/30 14:25:28;;;;;;;7.05;1.10;;;;;;;;;;4968925;28;20091;-81
2023/03/30 14:28:06;;;;;;;5.47;1.10;;;;;;;;;;4968106;28;20034;-81
2023/03/30 14:30:35;;;;;;;7.30;1.00;;;;;;;;;;4967792;28;20038;-81
2023/03/30 14:33:11;;;;;;;4.05;0.90;;;;;;;;;;4980634;28;20881;-81
2023/03/30 14:35:48;;;;;;;7.07;1.60;;;;;;;;;;4977946;28;20054;-81
2023/03/30 14:38:46;;;;;;;6.28;1.83;;;;;;;;;;4947793;28;20043;-81
2023/03/30 14:41:22;;;;;;;7.28;1.33;;;;;;;;;;4991381;28;20107;-81
2023/03/30 14:44:06;;;;;;;6.70;1.30;;;;;;;;;;4971711;28;20443;-81
2023/03/30 14:46:42;;;;;;;7.18;1.10;;;;;;;;;;4984703;28;20042;-81
2023/03/30 14:49:17;;;;;;;5.50;1.10;;;;;;;;;;5002710;28;20042;-81
2023/03/30 14:51:49;;;;;;;8.35;1.23;;;;;;;;;;4985078;28;20144;-81
2023/03/30 14:54:41;;;;;;;8.07;1.00;;;;;;;;;;5003539;28;20034;-81
2023/03/30 14:57:25;;;;;;;6.63;1.23;;;;;;;;;;5000703;28;20048;-81
2023/03/30 14:59:57;;;;;;;9.30;1.15;;;;;;;;;;4989045;28;20049;-81
2023/03/30 15:02:29;;;;;;;4.57;1.08;;;;;;;;;;4949716;28;20039;-81
2023/03/30 15:05:01;;;;;;;6.88;2.17;;;;;;;;;;4969821;28;20039;-81
2023/03/30 15:07:30;;;;;;;11.35;2.05;;;;;;;;;;4978684;28;20057;-81
2023/03/30 15:09:59;;;;;;;6.30;1.08;;;;;;;;;;4955139;28;20077;-81
2023/03/30 15:12:36;;;;;;;6.40;1.20;;;;;;;;;;4970366;28;20034;-81
2023/03/30 15:15:14;;;;;;;9.20;1.40;;;;;;;;;;5001003;28;20046;-81
2023/03/30 15:17:47;;;;;;;9.95;1.42;;;;;;;;;;4987604;28;20400;-81
2023/03/30 15:20:22;;;;;;;3.92;1.35;;;;;;;;;;4986745;28;20493;-81
2023/03/30 15:22:52;;;;;;;6.30;0.98;;;;;;;;;;4997263;28;20034;-81
2023/03/30 15:25:27;;;;;;;6.95;1.10;;;;;;;;;;4971088;28;20129;-81
2023/03/30 15:28:00;;;;;;;8.30;1.20;;;;;;;;;;4984432;28;20611;-81
2023/03/30 15:30:42;;;;;;;10.10;1.20;;;;;;;;;;4982436;28;20833;-80
2023/03/30 15:33:23;;;;;;;6.10;1.67;;;;;;;;;;4985234;28;20034;-81
2023/03/30 15:36:22;;;;;;;9.45;1.30;;;;;;;;;;4997549;28;20038;-81
2023/03/30 15:39:22;;;;;;;10.40;1.40;;;;;;;;;;4953320;28;20048;-81
2023/03/30 15:45:12;;;;;;;6.72;1.38;;;;;;;;;;4981657;28;20057;-80
2023/03/30 15:47:42;;;;;;;6.55;1.40;;;;;;;;;;4967947;28;20485;-80
2023/03/30 15:50:35;;;;;;;7.45;0.95;;;;;;;;;;5000176;28;20061;-81
2023/03/30 15:53:39;;;;;;;4.65;1.08;;;;;;;;;;4960836;28;20063;-80
2023/03/30 15:56:16;;;;;;;7.65;1.52;;;;;;;;;;4967887;28;20061;-80
2023/03/30 15:58:45;;;;;;;2.80;0.73;;;;;;;;;;4989370;28;20062;-81
2023/03/30 16:01:14;;;;;;;10.30;1.50;;;;;;;;;;4998616;28;20042;-81
2023/03/30 16:03:51;;;;;;;6.97;1.40;;;;;;;;;;4968726;28;20039;-80
2023/03/30 16:06:23;;;;;;;6.28;1.40;;;;;;;;;;4969485;28;20039;-81
2023/03/30 16:08:51;;;;;;;5.82;1.05;;;;;;;;;;4962467;28;20052;-81
2023/03/30 16:11:20;;;;;;;8.07;1.02;;;;;;;;;;4969917;28;20038;-81
2023/03/30 16:14:16;;;;;;;8.85;1.20;;;;;;;;;;4992111;28;20188;-81